Sao Miguel dos Campos, Brazil
Current Conditions -  °F | °C
As of 3:00 PM on Monday 24 Nov 2014 (Local Time) from SBMO Reporting Station
Scattered Clouds Scattered Clouds  
Wind Chill: 30°   Ceiling: Unl
Heat Index: 34°   Visibility: 6mi
Dew Point: 23°   Wind: 13mph
Humidity: 66%   Direction: 90°E
Pressure: 29.91"   Gusts: NA
Location:  9.78°S, 36.09°W
Report Text: SBMO 241800Z 09011KT 9999 SCT020 30/23 Q1013
Loading
Personal Weather Stations






























Interactive Weather Map New forecast layout! Learn more

10-Day Weather Forecast

Advertisements
Track Severe Weather on mobile